Time;durP1;ratioP1;P1;durP2;ratioP2;P2;SDS_P1;SDS_P2;PMS_P1;PMS_P2;Temp;Humidity;BMP_temperature;BMP_pressure;BME280_temperature;BME280_humidity;BME280_pressure;Samples;Min_cycle;Max_cycle;Signal;HPM_P1;HPM_P2
2022/04/10 00:02:18;;;;;;;8.03;1.80;;;3.80;99.90;;;;;;5062916;28;21127;-61
2022/04/10 00:04:45;;;;;;;3.77;1.47;;;3.80;99.90;;;;;;5084357;28;20195;-61
2022/04/10 00:07:12;;;;;;;6.97;1.60;;;3.80;99.90;;;;;;5071382;28;20303;-61
2022/04/10 00:09:39;;;;;;;7.30;1.50;;;3.80;99.90;;;;;;5071333;28;20365;-61
2022/04/10 00:12:07;;;;;;;5.53;1.70;;;3.80;99.90;;;;;;5086341;28;20212;-62
2022/04/10 00:14:34;;;;;;;7.50;1.80;;;3.80;99.90;;;;;;5065830;28;20200;-61
2022/04/10 00:17:01;;;;;;;12.30;2.17;;;3.80;99.90;;;;;;5062829;28;20216;-61
2022/04/10 00:19:31;;;;;;;6.83;2.23;;;3.80;99.90;;;;;;5081978;28;20200;-61
2022/04/10 00:21:58;;;;;;;4.87;1.90;;;3.80;99.90;;;;;;5072898;28;20199;-61
2022/04/10 00:24:25;;;;;;;10.23;1.70;;;3.80;99.90;;;;;;5083735;28;20202;-61
2022/04/10 00:26:52;;;;;;;8.97;2.07;;;3.80;99.90;;;;;;5070839;28;20209;-61
2022/04/10 00:29:19;;;;;;;4.63;1.83;;;3.80;99.90;;;;;;5068013;28;20733;-61
2022/04/10 00:31:46;;;;;;;6.27;2.30;;;3.90;99.90;;;;;;5052695;28;20222;-62
2022/04/10 00:34:13;;;;;;;5.20;1.57;;;3.90;99.90;;;;;;5082627;28;20830;-61
2022/04/10 00:36:41;;;;;;;6.87;1.80;;;3.90;99.90;;;;;;5078236;27;21401;-62
2022/04/10 00:39:08;;;;;;;7.70;1.80;;;4.00;99.90;;;;;;5088893;28;20289;-61
2022/04/10 00:41:35;;;;;;;4.70;1.40;;;4.00;99.90;;;;;;5074317;28;20216;-61
2022/04/10 00:44:06;;;;;;;5.53;1.87;;;4.00;99.90;;;;;;5092200;27;21169;-61
2022/04/10 00:46:33;;;;;;;7.83;1.70;;;4.10;99.90;;;;;;5056594;27;20234;-62
2022/04/10 00:49:00;;;;;;;6.63;1.73;;;4.10;99.90;;;;;;5073051;28;20988;-61
2022/04/10 00:51:41;;;;;;;4.33;2.17;;;4.10;99.90;;;;;;5086533;27;20432;-62
2022/04/10 00:54:14;;;;;;;3.60;1.90;;;4.10;99.90;;;;;;5086049;28;20376;-61
2022/04/10 00:56:41;;;;;;;4.83;2.10;;;4.00;99.90;;;;;;5075485;28;20225;-61
2022/04/10 00:59:09;;;;;;;6.17;1.80;;;4.00;99.90;;;;;;5085192;28;20202;-61
2022/04/10 01:01:37;;;;;;;3.27;1.60;;;4.00;99.90;;;;;;5068940;27;20206;-61
2022/04/10 01:04:05;;;;;;;5.03;1.57;;;3.90;99.90;;;;;;5070817;28;20204;-61
2022/04/10 01:06:33;;;;;;;8.63;1.67;;;3.80;99.90;;;;;;5086452;28;20195;-61
2022/04/10 01:09:01;;;;;;;9.10;1.83;;;3.80;99.90;;;;;;5076755;28;20201;-61
2022/04/10 01:11:29;;;;;;;7.03;1.90;;;3.70;99.90;;;;;;5082002;28;20220;-61
2022/04/10 01:13:57;;;;;;;6.83;1.50;;;3.80;99.90;;;;;;5079732;28;20234;-61
2022/04/10 01:16:24;;;;;;;5.10;2.43;;;3.70;99.90;;;;;;5072330;28;20197;-61
2022/04/10 01:18:52;;;;;;;6.80;1.67;;;3.80;99.90;;;;;;5058942;27;20209;-62
2022/04/10 01:21:24;;;;;;;7.23;1.80;;;3.80;99.90;;;;;;5086562;28;20205;-62
2022/04/10 01:23:53;;;;;;;12.80;1.90;;;3.80;99.90;;;;;;5075381;28;20949;-61
2022/04/10 01:26:20;;;;;;;4.30;1.60;;;3.80;99.90;;;;;;5089270;28;20202;-61
2022/04/10 01:28:58;;;;;;;5.10;1.73;;;3.80;99.90;;;;;;5075900;27;20286;-61
2022/04/10 01:31:25;;;;;;;6.63;1.60;;;3.90;99.90;;;;;;5082896;28;20226;-61
2022/04/10 01:33:54;;;;;;;7.23;1.97;;;3.90;99.90;;;;;;5072962;28;20733;-61
2022/04/10 01:36:22;;;;;;;11.03;1.90;;;3.80;99.90;;;;;;5060324;28;20199;-61
2022/04/10 01:38:49;;;;;;;5.83;1.73;;;3.80;99.90;;;;;;5079428;27;20254;-61
2022/04/10 01:41:18;;;;;;;3.40;1.53;;;3.70;99.90;;;;;;5082685;27;20199;-61
2022/04/10 01:43:46;;;;;;;6.07;1.43;;;3.70;99.90;;;;;;5074055;27;20198;-61
2022/04/10 01:46:13;;;;;;;10.47;2.00;;;3.70;99.90;;;;;;5086445;27;20198;-61
2022/04/10 01:48:40;;;;;;;7.23;1.60;;;3.60;99.90;;;;;;5069712;28;20242;-62
2022/04/10 01:51:07;;;;;;;5.80;1.20;;;3.60;99.90;;;;;;5070833;28;20224;-61
2022/04/10 01:53:34;;;;;;;7.20;2.13;;;3.70;99.90;;;;;;5076787;28;20208;-61
2022/04/10 01:56:02;;;;;;;4.60;1.77;;;3.70;99.90;;;;;;5074821;28;20223;-61
2022/04/10 01:58:31;;;;;;;7.00;1.87;;;3.70;99.90;;;;;;5069415;28;20248;-62
2022/04/10 02:00:58;;;;;;;6.23;1.80;;;3.70;99.90;;;;;;5077752;28;20200;-61
2022/04/10 02:03:25;;;;;;;7.10;1.77;;;3.70;99.90;;;;;;5065942;28;20207;-62
2022/04/10 02:05:52;;;;;;;4.07;1.77;;;3.70;99.90;;;;;;5070942;28;20220;-61
2022/04/10 02:08:19;;;;;;;5.37;1.43;;;3.70;99.90;;;;;;5084426;28;22231;-61
2022/04/10 02:10:45;;;;;;;9.73;2.20;;;3.70;99.90;;;;;;5070762;28;20208;-62
2022/04/10 02:13:12;;;;;;;6.90;1.70;;;3.70;99.90;;;;;;5069968;28;20210;-61
2022/04/10 02:15:41;;;;;;;9.67;2.23;;;3.70;99.90;;;;;;5075036;28;20200;-62
2022/04/10 02:18:08;;;;;;;10.53;2.00;;;3.70;99.90;;;;;;5072096;27;20222;-62
2022/04/10 02:20:35;;;;;;;4.60;1.77;;;3.70;99.90;;;;;;5068883;28;21012;-62
2022/04/10 02:23:02;;;;;;;8.13;2.53;;;3.70;99.90;;;;;;5088653;27;20203;-62
2022/04/10 02:25:29;;;;;;;5.93;1.80;;;3.80;99.90;;;;;;5076884;27;23117;-62
2022/04/10 02:27:56;;;;;;;8.20;1.87;;;3.80;99.90;;;;;;5083833;28;20202;-61
2022/04/10 02:30:22;;;;;;;3.80;1.63;;;3.90;99.90;;;;;;5072177;28;20205;-62
2022/04/10 02:32:51;;;;;;;9.23;2.87;;;3.90;99.90;;;;;;5085655;28;20668;-61
2022/04/10 02:35:18;;;;;;;11.23;2.30;;;3.90;99.90;;;;;;5065427;27;20864;-62
2022/04/10 02:37:46;;;;;;;7.30;2.27;;;3.90;99.90;;;;;;5095092;28;20737;-61
2022/04/10 02:40:15;;;;;;;8.50;2.03;;;3.90;99.90;;;;;;5112925;27;20199;-61
2022/04/10 02:42:42;;;;;;;11.23;2.40;;;3.90;99.90;;;;;;5092816;28;20199;-61
2022/04/10 02:45:10;;;;;;;6.17;1.77;;;3.90;99.90;;;;;;5086829;27;20289;-61
2022/04/10 02:47:37;;;;;;;5.40;2.90;;;3.90;99.90;;;;;;5081211;28;20208;-62
2022/04/10 02:50:06;;;;;;;8.90;1.90;;;3.80;99.90;;;;;;5079682;27;20236;-62
2022/04/10 02:52:33;;;;;;;7.03;1.73;;;3.80;99.90;;;;;;5059330;27;20207;-62
2022/04/10 02:55:00;;;;;;;5.90;1.97;;;3.80;99.90;;;;;;5084546;27;20658;-62
2022/04/10 02:57:27;;;;;;;10.67;2.13;;;3.80;99.90;;;;;;5073821;28;20935;-62
2022/04/10 02:59:53;;;;;;;4.83;2.10;;;3.70;99.90;;;;;;5086352;28;20896;-61
2022/04/10 03:02:20;;;;;;;5.27;1.93;;;3.60;99.90;;;;;;5061103;28;20224;-61
2022/04/10 03:04:47;;;;;;;9.13;1.80;;;3.60;99.90;;;;;;5071622;28;20272;-62
2022/04/10 03:07:16;;;;;;;8.83;1.90;;;3.60;99.90;;;;;;5063932;28;20199;-62
2022/04/10 03:09:42;;;;;;;5.17;1.63;;;3.60;99.90;;;;;;5085739;28;20198;-61
2022/04/10 03:12:10;;;;;;;6.23;1.87;;;3.60;99.90;;;;;;5083667;28;20206;-62
2022/04/10 03:14:37;;;;;;;9.93;2.33;;;3.60;99.90;;;;;;5089311;28;20253;-61
2022/04/10 03:17:05;;;;;;;7.67;1.93;;;3.60;99.90;;;;;;5073145;28;20212;-61
2022/04/10 03:19:31;;;;;;;4.97;1.80;;;3.50;99.90;;;;;;5080714;28;20651;-62
2022/04/10 03:21:58;;;;;;;8.33;2.00;;;3.50;99.90;;;;;;5078041;27;20215;-62
2022/04/10 03:24:30;;;;;;;7.80;1.63;;;3.50;99.90;;;;;;5063629;28;20227;-61
2022/04/10 03:26:56;;;;;;;5.63;1.53;;;3.50;99.90;;;;;;5090396;28;20226;-61
2022/04/10 03:29:23;;;;;;;5.97;1.37;;;3.50;99.90;;;;;;5077001;28;20207;-61
2022/04/10 03:31:50;;;;;;;5.90;1.73;;;3.50;99.90;;;;;;5078763;28;20206;-62
2022/04/10 03:34:17;;;;;;;9.40;2.13;;;3.40;99.90;;;;;;5076151;28;20962;-62
2022/04/10 03:36:44;;;;;;;9.10;1.80;;;3.40;99.90;;;;;;5075064;28;20206;-61
2022/04/10 03:39:11;;;;;;;11.63;1.93;;;3.40;99.90;;;;;;5065910;28;20613;-61
2022/04/10 03:41:39;;;;;;;6.10;2.23;;;3.40;99.90;;;;;;5091280;27;20881;-61
2022/04/10 03:44:07;;;;;;;4.30;1.60;;;3.40;99.90;;;;;;5078444;27;20695;-61
2022/04/10 03:46:34;;;;;;;3.17;1.63;;;3.30;99.90;;;;;;5077831;28;20574;-61
2022/04/10 03:49:00;;;;;;;4.17;1.77;;;3.40;99.90;;;;;;5076732;28;20206;-61
2022/04/10 03:51:27;;;;;;;7.40;1.97;;;3.40;99.90;;;;;;5072373;28;20214;-61
2022/04/10 03:53:55;;;;;;;8.63;2.00;;;3.40;99.90;;;;;;5088704;28;20730;-61
2022/04/10 03:56:21;;;;;;;11.60;1.80;;;3.40;99.90;;;;;;5070439;28;20300;-62
2022/04/10 03:58:49;;;;;;;17.67;2.60;;;3.40;99.90;;;;;;5089111;28;23088;-61
2022/04/10 04:01:17;;;;;;;7.93;2.20;;;3.40;99.90;;;;;;5064944;28;20209;-62
2022/04/10 04:03:43;;;;;;;8.53;2.20;;;3.40;99.90;;;;;;5072672;28;20201;-62
2022/04/10 04:06:10;;;;;;;11.17;2.07;;;3.40;99.90;;;;;;5085173;28;20202;-62
2022/04/10 04:08:39;;;;;;;10.17;2.40;;;3.40;99.90;;;;;;5072027;28;20203;-62
2022/04/10 04:11:06;;;;;;;9.90;3.10;;;3.30;99.90;;;;;;5067835;28;20342;-61
2022/04/10 04:13:33;;;;;;;13.10;2.47;;;3.40;99.90;;;;;;5078990;28;20187;-62
2022/04/10 04:16:01;;;;;;;7.70;2.50;;;3.40;99.90;;;;;;5061027;28;20204;-61
2022/04/10 04:18:28;;;;;;;10.20;2.47;;;3.40;99.90;;;;;;5061449;28;20231;-61
2022/04/10 04:20:55;;;;;;;10.87;2.60;;;3.40;99.90;;;;;;5078755;28;20670;-62
2022/04/10 04:23:22;;;;;;;6.97;2.43;;;3.40;99.90;;;;;;5069039;28;20228;-62
2022/04/10 04:25:49;;;;;;;10.33;2.33;;;3.40;99.90;;;;;;5067742;28;20211;-61
2022/04/10 04:28:16;;;;;;;6.43;2.50;;;3.30;99.90;;;;;;5078953;28;20196;-61
2022/04/10 04:30:43;;;;;;;7.60;2.13;;;3.40;99.90;;;;;;5074024;28;20213;-61
2022/04/10 04:33:11;;;;;;;7.70;2.07;;;3.30;99.90;;;;;;5070936;28;20219;-62
2022/04/10 04:35:38;;;;;;;15.13;2.60;;;3.40;99.90;;;;;;5082369;28;20663;-62
2022/04/10 04:38:05;;;;;;;6.23;1.80;;;3.40;99.90;;;;;;5076062;28;20217;-61
2022/04/10 04:40:32;;;;;;;5.77;2.57;;;3.30;99.90;;;;;;5055038;28;25126;-61
2022/04/10 04:42:58;;;;;;;5.50;1.93;;;3.40;99.90;;;;;;5078792;28;20197;-61
2022/04/10 04:45:25;;;;;;;16.70;3.73;;;3.30;99.90;;;;;;5078592;28;20220;-62
2022/04/10 04:47:52;;;;;;;4.57;2.10;;;3.30;99.90;;;;;;5077583;28;20209;-61
2022/04/10 04:50:20;;;;;;;11.27;2.83;;;3.30;99.90;;;;;;5057934;28;20205;-61
2022/04/10 04:52:47;;;;;;;9.73;2.77;;;3.30;99.90;;;;;;5073536;28;20756;-61
2022/04/10 04:55:14;;;;;;;10.30;2.20;;;3.30;99.90;;;;;;5072619;28;20206;-61
2022/04/10 04:57:41;;;;;;;5.43;2.60;;;3.30;99.90;;;;;;5060808;28;20595;-61
2022/04/10 05:00:09;;;;;;;5.33;1.83;;;3.20;99.90;;;;;;5082591;28;20206;-61
2022/04/10 05:02:35;;;;;;;8.67;1.97;;;3.30;99.90;;;;;;5075832;28;20219;-62
2022/04/10 05:05:03;;;;;;;12.93;2.27;;;3.30;99.90;;;;;;5073178;28;20201;-61
2022/04/10 05:07:31;;;;;;;6.13;2.33;;;3.30;99.90;;;;;;5088496;28;20233;-61
2022/04/10 05:09:58;;;;;;;8.77;2.20;;;3.20;99.90;;;;;;5082566;28;21096;-61
2022/04/10 05:12:24;;;;;;;9.27;1.80;;;3.20;99.90;;;;;;5068178;28;20228;-63
2022/04/10 05:14:51;;;;;;;4.07;1.73;;;3.20;99.90;;;;;;5088157;28;20651;-61
2022/04/10 05:17:18;;;;;;;9.17;2.23;;;3.20;99.90;;;;;;5085711;28;20216;-61
2022/04/10 05:19:45;;;;;;;10.27;2.63;;;3.20;99.90;;;;;;5077304;28;21086;-61
2022/04/10 05:22:12;;;;;;;4.47;1.80;;;3.20;99.90;;;;;;5099494;28;20208;-61
2022/04/10 05:24:40;;;;;;;6.60;1.83;;;3.30;99.90;;;;;;5085342;28;20332;-61
2022/04/10 05:27:10;;;;;;;12.80;2.20;;;3.40;99.90;;;;;;5083223;28;20210;-62
2022/04/10 05:29:36;;;;;;;7.97;2.03;;;3.40;99.90;;;;;;5117287;27;20182;-61
2022/04/10 05:32:04;;;;;;;8.70;2.10;;;3.50;99.90;;;;;;5104092;27;20308;-62
2022/04/10 05:34:31;;;;;;;6.50;1.53;;;3.40;99.90;;;;;;5081001;28;20231;-61
2022/04/10 05:36:58;;;;;;;10.37;2.17;;;3.50;99.90;;;;;;5082258;28;20215;-61
2022/04/10 05:39:25;;;;;;;8.40;1.73;;;3.40;99.90;;;;;;5083893;27;20225;-62
2022/04/10 05:41:53;;;;;;;5.30;1.90;;;3.40;99.90;;;;;;5068849;27;21735;-62
2022/04/10 05:44:20;;;;;;;4.03;1.67;;;3.40;99.90;;;;;;5085371;28;20281;-62
2022/04/10 05:46:47;;;;;;;4.93;1.60;;;3.40;99.90;;;;;;5079599;27;21034;-62
2022/04/10 05:49:14;;;;;;;8.40;3.43;;;3.50;99.90;;;;;;5082310;27;20204;-62
2022/04/10 05:51:41;;;;;;;5.17;1.67;;;3.50;99.90;;;;;;5081555;27;20206;-62
2022/04/10 05:54:08;;;;;;;5.60;2.10;;;3.60;99.90;;;;;;5094990;27;20193;-62
2022/04/10 05:56:35;;;;;;;8.27;1.53;;;3.60;99.90;;;;;;5078539;27;20257;-62
2022/04/10 05:59:03;;;;;;;5.33;1.87;;;3.70;99.90;;;;;;5072861;27;20242;-62
2022/04/10 06:01:30;;;;;;;5.70;1.93;;;3.70;99.90;;;;;;5067861;28;20585;-62
2022/04/10 06:03:57;;;;;;;6.80;1.93;;;3.80;99.90;;;;;;5065924;28;20845;-60
2022/04/10 06:06:25;;;;;;;5.20;1.77;;;3.80;99.90;;;;;;5083451;28;20199;-60
2022/04/10 06:08:52;;;;;;;10.33;1.80;;;3.80;99.90;;;;;;5080600;27;20545;-61
2022/04/10 06:11:19;;;;;;;8.70;2.20;;;3.90;99.90;;;;;;5076037;27;20208;-60
2022/04/10 06:13:46;;;;;;;8.43;1.80;;;3.90;99.90;;;;;;5061169;27;20225;-61
2022/04/10 06:16:14;;;;;;;2.77;1.47;;;4.00;99.90;;;;;;5076092;28;20219;-60
2022/04/10 06:18:41;;;;;;;6.73;1.50;;;4.10;99.90;;;;;;5074409;27;20234;-61
2022/04/10 06:21:09;;;;;;;2.97;1.70;;;4.10;99.90;;;;;;5074657;28;20201;-61
2022/04/10 06:23:36;;;;;;;8.07;1.60;;;4.10;99.90;;;;;;5073271;27;20203;-60
2022/04/10 06:26:02;;;;;;;8.93;1.60;;;4.00;99.90;;;;;;5069323;28;22892;-61
2022/04/10 06:28:30;;;;;;;6.67;1.80;;;4.10;99.90;;;;;;5081394;27;20223;-61
2022/04/10 06:30:57;;;;;;;8.10;1.80;;;4.10;99.90;;;;;;5057703;28;20355;-61
2022/04/10 06:33:25;;;;;;;6.13;1.70;;;4.10;99.90;;;;;;5086746;28;20199;-61
2022/04/10 06:35:53;;;;;;;5.27;1.60;;;4.10;99.90;;;;;;5067056;27;20200;-61
2022/04/10 06:38:20;;;;;;;8.80;1.63;;;4.20;99.90;;;;;;5073108;28;20582;-60
2022/04/10 06:40:51;;;;;;;5.87;1.73;;;4.30;99.90;;;;;;5080222;27;20226;-60
2022/04/10 06:43:19;;;;;;;5.27;1.80;;;4.40;99.90;;;;;;5079630;27;20289;-61
2022/04/10 06:45:46;;;;;;;8.73;2.23;;;4.40;99.90;;;;;;5062144;28;20311;-61
2022/04/10 06:48:13;;;;;;;4.57;1.60;;;4.50;99.90;;;;;;5085818;28;20201;-60
2022/04/10 06:50:42;;;;;;;4.43;1.57;;;4.50;99.90;;;;;;5074677;28;20206;-60
2022/04/10 06:53:09;;;;;;;8.20;1.50;;;4.60;99.90;;;;;;5076236;28;20223;-61
2022/04/10 06:55:36;;;;;;;4.27;1.43;;;4.60;99.90;;;;;;5073738;28;21054;-61
2022/04/10 06:58:03;;;;;;;5.87;1.63;;;4.70;99.90;;;;;;5076387;27;20199;-61
2022/04/10 07:00:31;;;;;;;9.60;2.40;;;4.80;99.90;;;;;;5064659;27;20231;-61
2022/04/10 07:03:01;;;;;;;6.47;2.10;;;4.90;99.90;;;;;;5085664;28;20207;-61
2022/04/10 07:05:28;;;;;;;6.33;2.13;;;5.00;99.90;;;;;;5067547;27;20224;-61
2022/04/10 07:07:59;;;;;;;3.53;1.40;;;5.00;99.90;;;;;;5082344;28;20785;-61
2022/04/10 07:10:26;;;;;;;3.77;1.60;;;4.90;99.90;;;;;;5077869;27;20223;-61
2022/04/10 07:12:53;;;;;;;6.70;1.80;;;4.80;99.90;;;;;;5079631;28;21059;-62
2022/04/10 07:15:20;;;;;;;5.97;1.70;;;4.80;99.90;;;;;;5064134;28;20255;-62
2022/04/10 07:17:47;;;;;;;8.67;1.60;;;4.80;99.90;;;;;;5064989;28;20229;-62
2022/04/10 07:20:14;;;;;;;2.83;1.37;;;4.70;99.90;;;;;;5070647;27;20695;-62
2022/04/10 07:25:27;;;;;;;3.83;1.77;;;5.00;99.90;;;;;;5067038;28;20237;-62
2022/04/10 07:27:55;;;;;;;3.63;1.43;;;5.10;99.90;;;;;;5088272;28;20637;-61
2022/04/10 07:30:22;;;;;;;6.33;1.90;;;5.20;99.90;;;;;;5061164;28;20276;-61
2022/04/10 07:32:53;;;;;;;4.57;1.43;;;5.30;99.90;;;;;;5080688;28;20203;-61
2022/04/10 07:35:21;;;;;;;6.33;1.87;;;5.30;99.90;;;;;;5074125;28;20216;-63
2022/04/10 07:37:48;;;;;;;4.20;1.83;;;5.30;99.90;;;;;;5063701;27;20309;-61
2022/04/10 07:40:15;;;;;;;7.70;1.67;;;5.30;99.90;;;;;;5080105;28;20227;-62
2022/04/10 07:42:44;;;;;;;6.40;1.97;;;5.50;99.90;;;;;;5075721;27;20876;-62
2022/04/10 07:47:25;;;;;;;6.00;1.70;;;5.20;99.90;;;;;;5077781;28;20793;-62
2022/04/10 07:47:59;;;;;;;4.13;1.50;;;5.30;99.90;;;;;;5072607;28;20280;-62
2022/04/10 07:50:27;;;;;;;3.53;1.23;;;5.60;99.90;;;;;;5080611;27;20215;-62
2022/04/10 07:52:54;;;;;;;8.97;1.80;;;5.60;99.90;;;;;;5070576;28;20210;-62
2022/04/10 07:55:21;;;;;;;11.13;2.10;;;5.70;99.90;;;;;;5080111;27;20760;-61
2022/04/10 07:57:50;;;;;;;7.33;1.63;;;5.80;99.90;;;;;;5075393;28;20229;-62
2022/04/10 08:00:18;;;;;;;7.17;1.87;;;5.90;99.90;;;;;;5077077;27;20278;-62
2022/04/10 08:02:46;;;;;;;7.27;1.67;;;6.00;99.90;;;;;;5070622;28;20261;-62
2022/04/10 08:05:13;;;;;;;7.13;1.97;;;6.00;99.90;;;;;;5093346;28;20212;-62
2022/04/10 08:07:40;;;;;;;6.70;2.47;;;6.10;99.90;;;;;;5080118;28;20225;-62
2022/04/10 08:10:08;;;;;;;10.97;1.80;;;6.20;99.90;;;;;;5084537;28;20283;-62
2022/04/10 08:12:35;;;;;;;6.97;1.30;;;6.10;99.90;;;;;;5082836;28;20212;-64
2022/04/10 08:15:05;;;;;;;5.07;1.23;;;6.00;99.90;;;;;;5110655;28;20219;-61
2022/04/10 08:17:32;;;;;;;4.47;1.60;;;6.10;99.90;;;;;;5120629;28;20207;-63
2022/04/10 08:19:59;;;;;;;8.87;1.63;;;6.30;99.90;;;;;;5107152;28;20235;-63
2022/04/10 08:22:27;;;;;;;8.93;2.30;;;6.40;99.90;;;;;;5085952;28;20199;-62
2022/04/10 08:24:54;;;;;;;6.33;2.50;;;6.20;99.90;;;;;;5075680;28;20279;-63
2022/04/10 08:27:22;;;;;;;7.47;1.70;;;6.10;99.90;;;;;;5079694;28;20263;-62
2022/04/10 08:29:49;;;;;;;7.00;1.73;;;6.00;99.90;;;;;;5073086;28;20727;-62
2022/04/10 08:32:17;;;;;;;5.83;1.60;;;6.00;99.90;;;;;;5058302;28;20354;-62
2022/04/10 08:34:44;;;;;;;27.77;4.67;;;5.90;99.90;;;;;;5075128;28;20571;-63
2022/04/10 08:37:11;;;;;;;10.63;1.97;;;5.90;99.90;;;;;;5085959;28;20901;-62
2022/04/10 08:39:38;;;;;;;13.70;2.00;;;6.00;99.90;;;;;;5060771;28;20932;-62
2022/04/10 08:42:08;;;;;;;4.93;1.60;;;6.10;99.90;;;;;;5074973;28;20234;-62
2022/04/10 08:44:36;;;;;;;3.97;1.40;;;6.30;99.90;;;;;;5064898;28;21454;-62
2022/04/10 08:47:04;;;;;;;7.17;1.80;;;6.10;99.90;;;;;;5072671;28;20248;-62
2022/04/10 08:49:33;;;;;;;12.17;2.67;;;6.20;99.90;;;;;;5061611;28;20223;-62
2022/04/10 08:52:00;;;;;;;9.63;1.80;;;6.20;99.90;;;;;;5076506;28;20230;-63
2022/04/10 08:54:28;;;;;;;7.87;1.90;;;6.30;99.90;;;;;;5068905;28;20231;-63
2022/04/10 08:56:57;;;;;;;7.83;2.20;;;6.50;99.90;;;;;;5076165;28;20223;-62
2022/04/10 08:59:24;;;;;;;6.97;1.40;;;6.60;99.90;;;;;;5072834;27;20239;-62
2022/04/10 09:01:53;;;;;;;6.80;1.90;;;6.60;99.90;;;;;;5078829;27;20252;-63
2022/04/10 09:04:21;;;;;;;6.93;1.40;;;6.60;99.90;;;;;;5072405;28;20300;-62
2022/04/10 09:06:59;;;;;;;11.03;1.87;;;6.60;99.90;;;;;;5083840;27;20230;-62
2022/04/10 09:09:27;;;;;;;9.00;1.57;;;6.50;99.90;;;;;;5065733;27;20224;-63
2022/04/10 09:11:55;;;;;;;7.50;1.73;;;6.60;99.90;;;;;;5077629;27;20204;-62
2022/04/10 09:14:23;;;;;;;6.27;1.67;;;6.70;99.90;;;;;;5075486;27;20247;-62
2022/04/10 09:17:11;;;;;;;5.47;1.43;;;6.90;99.90;;;;;;5067802;27;20235;-62
2022/04/10 09:19:39;;;;;;;9.80;1.83;;;6.70;99.90;;;;;;5061863;27;20239;-63
2022/04/10 09:22:28;;;;;;;9.43;1.83;;;6.70;99.90;;;;;;5085610;28;20895;-61
2022/04/10 09:25:03;;;;;;;10.40;1.77;;;6.90;99.90;;;;;;5070279;27;21676;-62
2022/04/10 09:27:31;;;;;;;6.03;1.50;;;7.00;99.90;;;;;;5067564;27;20213;-62
2022/04/10 09:29:58;;;;;;;6.30;2.00;;;7.20;99.90;;;;;;5076107;28;20223;-62
2022/04/10 09:32:41;;;;;;;6.67;1.90;;;7.10;99.90;;;;;;5083982;27;20196;-62
2022/04/10 09:35:09;;;;;;;5.33;1.90;;;7.10;99.90;;;;;;5054418;28;20595;-62
2022/04/10 09:37:53;;;;;;;6.77;1.70;;;7.20;99.90;;;;;;5086831;27;20250;-61
2022/04/10 09:40:29;;;;;;;11.17;2.13;;;6.90;99.90;;;;;;5077160;27;20234;-62
2022/04/10 09:43:04;;;;;;;6.60;1.60;;;6.70;99.90;;;;;;5072413;27;20219;-61
2022/04/10 09:45:38;;;;;;;14.77;2.27;;;6.70;99.90;;;;;;5083951;27;20219;-62
2022/04/10 09:48:19;;;;;;;10.03;1.93;;;6.90;99.90;;;;;;5078108;27;20219;-63
2022/04/10 09:50:47;;;;;;;7.93;1.30;;;7.10;99.90;;;;;;5067364;28;20224;-62
2022/04/10 09:53:15;;;;;;;6.17;1.70;;;7.50;99.90;;;;;;5085663;28;20233;-62
2022/04/10 09:55:44;;;;;;;8.30;1.63;;;7.60;99.90;;;;;;5075226;28;20219;-62
2022/04/10 09:58:13;;;;;;;13.33;1.60;;;7.90;99.90;;;;;;5079740;27;20199;-62
2022/04/10 10:00:44;;;;;;;3.20;1.13;;;7.90;99.90;;;;;;5091011;28;20241;-61
2022/04/10 10:03:12;;;;;;;7.63;1.97;;;7.20;99.90;;;;;;5071032;27;20214;-61
2022/04/10 10:05:39;;;;;;;1.87;0.93;;;6.70;99.90;;;;;;5066848;27;20239;-61
2022/04/10 10:08:07;;;;;;;2.77;1.23;;;6.30;99.90;;;;;;5086878;28;20849;-61
2022/04/10 10:10:37;;;;;;;7.07;1.10;;;5.90;99.90;;;;;;5077632;27;20227;-62
2022/04/10 10:13:06;;;;;;;8.57;1.37;;;6.20;99.90;;;;;;5077887;27;20287;-62
2022/04/10 10:15:35;;;;;;;4.13;1.10;;;6.40;99.90;;;;;;5084731;27;20196;-62
2022/04/10 10:18:03;;;;;;;1.50;0.90;;;6.20;99.90;;;;;;5078745;27;20310;-62
2022/04/10 10:20:31;;;;;;;5.37;1.37;;;6.10;99.90;;;;;;5060306;27;20923;-62
2022/04/10 10:23:00;;;;;;;5.97;1.20;;;6.00;99.90;;;;;;5078197;27;20302;-62
2022/04/10 10:25:31;;;;;;;4.67;1.10;;;6.00;99.90;;;;;;5086080;27;20285;-62
2022/04/10 10:28:20;;;;;;;2.53;1.07;;;6.00;99.90;;;;;;5078394;27;20324;-62
2022/04/10 10:30:59;;;;;;;2.83;0.90;;;6.10;99.90;;;;;;5085162;27;20202;-62
2022/04/10 10:33:28;;;;;;;5.03;1.20;;;6.10;99.90;;;;;;5066587;27;20206;-63
2022/04/10 10:35:59;;;;;;;5.03;1.03;;;6.30;99.90;;;;;;5071325;28;20219;-62
2022/04/10 10:38:28;;;;;;;4.83;1.37;;;6.50;99.90;;;;;;5072589;28;20210;-62
2022/04/10 10:41:10;;;;;;;7.60;1.93;;;6.70;99.90;;;;;;5073878;27;20255;-63
2022/04/10 10:43:38;;;;;;;6.97;1.83;;;7.00;99.90;;;;;;5078277;27;20314;-63
2022/04/10 10:46:20;;;;;;;8.47;1.57;;;7.00;99.90;;;;;;5079555;28;20208;-62
2022/04/10 10:48:47;;;;;;;3.60;1.03;;;6.80;99.90;;;;;;5071205;28;20251;-62
2022/04/10 10:51:43;;;;;;;2.33;0.90;;;6.30;99.90;;;;;;5083833;28;20211;-62
2022/04/10 10:54:15;;;;;;;2.63;1.10;;;5.30;99.90;;;;;;5069662;27;20231;-63
2022/04/10 10:56:46;;;;;;;4.90;1.40;;;5.30;99.90;;;;;;5095964;27;20201;-62
2022/04/10 10:59:32;;;;;;;6.30;1.50;;;5.30;99.90;;;;;;5093527;28;20199;-63
2022/04/10 11:02:07;;;;;;;4.70;1.43;;;5.50;99.90;;;;;;5080428;27;20225;-62
2022/04/10 11:04:36;;;;;;;3.10;1.00;;;5.50;99.90;;;;;;5078893;27;20199;-63
2022/04/10 11:07:14;;;;;;;9.40;1.83;;;5.60;99.90;;;;;;5083928;28;20227;-63
2022/04/10 11:09:55;;;;;;;3.57;1.30;;;5.80;99.90;;;;;;5057617;28;20223;-63
2022/04/10 11:12:30;;;;;;;2.47;1.20;;;5.80;99.90;;;;;;5070962;27;20235;-63
2022/04/10 11:15:19;;;;;;;6.27;1.37;;;6.10;99.90;;;;;;5103380;27;20211;-62
2022/04/10 11:17:49;;;;;;;3.83;1.40;;;6.30;99.90;;;;;;5090000;27;20226;-62
2022/04/10 11:20:21;;;;;;;5.37;1.40;;;6.40;99.90;;;;;;5088225;28;20236;-62
2022/04/10 11:22:49;;;;;;;7.90;1.63;;;6.50;99.90;;;;;;5097375;27;20195;-62
2022/04/10 11:25:19;;;;;;;5.53;1.37;;;6.80;99.90;;;;;;5085888;28;20274;-62
2022/04/10 11:27:51;;;;;;;19.40;2.00;;;6.90;99.90;;;;;;5105045;27;20359;-61
2022/04/10 11:30:24;;;;;;;12.03;2.03;;;7.10;99.90;;;;;;5063519;27;20203;-62
2022/04/10 11:32:54;;;;;;;4.17;1.33;;;7.20;99.90;;;;;;5105314;27;20196;-62
2022/04/10 11:35:26;;;;;;;3.40;1.00;;;7.30;99.90;;;;;;5090583;28;20205;-62
2022/04/10 11:37:55;;;;;;;7.20;1.50;;;7.20;99.90;;;;;;5101399;28;20220;-60
2022/04/10 11:40:26;;;;;;;3.77;1.10;;;6.90;99.90;;;;;;5084347;28;20223;-61
2022/04/10 11:42:54;;;;;;;3.70;1.30;;;6.10;99.90;;;;;;5104386;28;21235;-61
2022/04/10 11:45:27;;;;;;;10.53;1.50;;;5.20;99.90;;;;;;5094810;28;20282;-62
2022/04/10 11:47:55;;;;;;;2.90;1.10;;;4.70;99.90;;;;;;5108405;28;20200;-61
2022/04/10 11:50:32;;;;;;;2.60;1.03;;;4.60;99.90;;;;;;5080517;28;21215;-63
2022/04/10 11:58:37;;;;;;;2.50;1.13;;;5.10;99.90;;;;;;5108225;28;20268;-62
2022/04/10 12:01:10;;;;;;;2.23;1.13;;;5.60;99.90;;;;;;5091032;27;20301;-62
2022/04/10 12:03:43;;;;;;;7.53;1.13;;;5.90;99.90;;;;;;5115362;27;20207;-60
2022/04/10 12:06:21;;;;;;;6.03;1.70;;;6.00;99.90;;;;;;5099057;28;20222;-62
2022/04/10 12:08:55;;;;;;;6.20;1.77;;;6.20;99.90;;;;;;5100816;28;20326;-63
2022/04/10 12:11:22;;;;;;;11.93;2.00;;;6.50;99.90;;;;;;5091196;28;20225;-63
2022/04/10 12:13:49;;;;;;;4.13;1.50;;;6.60;99.90;;;;;;5102321;28;20223;-61
2022/04/10 12:16:19;;;;;;;5.83;1.53;;;6.90;99.90;;;;;;5108601;28;20200;-61
2022/04/10 12:18:49;;;;;;;6.97;1.70;;;7.10;99.90;;;;;;5072485;28;20211;-62
2022/04/10 12:21:17;;;;;;;8.37;1.60;;;7.20;99.90;;;;;;5067211;28;20229;-63
2022/04/10 12:23:45;;;;;;;6.03;1.93;;;7.30;99.90;;;;;;5086359;28;20210;-63
2022/04/10 12:26:16;;;;;;;6.50;2.37;;;7.40;99.90;;;;;;5099400;28;20250;-61
2022/04/10 12:28:43;;;;;;;6.97;1.70;;;7.40;99.90;;;;;;5097993;28;20203;-61
2022/04/10 12:31:11;;;;;;;6.47;2.07;;;7.50;99.90;;;;;;5068636;28;20223;-62
2022/04/10 12:33:40;;;;;;;5.97;1.70;;;7.60;99.90;;;;;;5068141;27;20210;-62
2022/04/10 12:36:18;;;;;;;10.33;1.90;;;7.60;99.90;;;;;;5085918;28;20226;-61
2022/04/10 12:38:45;;;;;;;7.70;1.53;;;7.70;99.90;;;;;;5081575;28;20310;-62
2022/04/10 12:41:12;;;;;;;4.17;1.20;;;7.70;99.90;;;;;;5088905;27;20721;-63
2022/04/10 12:43:40;;;;;;;6.87;1.53;;;7.70;99.90;;;;;;5099061;28;20640;-63
2022/04/10 12:46:10;;;;;;;10.80;1.90;;;7.80;99.90;;;;;;5098962;28;20213;-62
2022/04/10 12:48:40;;;;;;;4.87;1.63;;;7.90;99.90;;;;;;5077762;27;20202;-63
2022/04/10 12:51:08;;;;;;;4.23;1.50;;;7.80;99.90;;;;;;5088016;28;20203;-63
2022/04/10 12:53:36;;;;;;;7.83;1.60;;;7.80;99.90;;;;;;5085947;28;20301;-63
2022/04/10 12:56:05;;;;;;;6.13;1.43;;;7.80;99.90;;;;;;5086174;28;20221;-63
2022/04/10 12:58:44;;;;;;;3.73;1.30;;;7.90;99.90;;;;;;5092452;28;20220;-63
2022/04/10 13:01:25;;;;;;;7.80;1.60;;;7.90;99.90;;;;;;5092285;27;20229;-63
2022/04/10 13:03:54;;;;;;;6.97;1.27;;;8.10;99.90;;;;;;5067785;28;20362;-62
2022/04/10 13:06:26;;;;;;;4.97;1.20;;;8.20;99.90;;;;;;5091901;27;20218;-65
2022/04/10 13:09:13;;;;;;;6.73;2.20;;;8.20;99.90;;;;;;5096100;28;20255;-62
2022/04/10 13:11:45;;;;;;;3.97;1.50;;;8.30;99.90;;;;;;5096095;27;20213;-63
2022/04/10 13:14:13;;;;;;;8.93;1.63;;;8.30;99.90;;;;;;5103241;28;20199;-62